PWSweather.com
Personal Weather Stations
Station Observations
RHPWSHOR1
Lostock, BoltonGB

LostockBoltonGB

Lat: 53.58073044, Lon: -2.52344131

Elevation: 389

Station Type: Oregon Scientific WMR100

Latest ConditionsUpdated 11:27:55 AM GMT Tuesday, Jun 28, 2016
Currently Today's Max Today's Min Today's Average
Temperature 61.3°F16.3°C 63.5°F17.5°C 49.3°F9.6°C 56.1°F13.4°C
Dew Point 34.9°F1.6°C 49.9°F9.9°C 34.1°F1.2°C 38.1°F3.4°C
Winds 1.1 mph WSW1.8 kmh WSW 2.9 mph NNE4.7 kmh NNE - 0.7 mph 1.1 kmh
Wind Gusts 2.5 mph4.0 kmh 3.4 mph5.5 kmh - -
Humidity 37% 74% 35% 52%
Pressure 29.32 in992.9 mb 29.50 in999.0 mb 29.32 in992.9 mb -
Hour Temp Dew Point Humidity Winds Wind Gusts Pressure Precip Precip Rate Daily Precip Total
11:27 AM 61.3°F16.3°C 34.9°F1.6°C 37% 1.1 mph WSW1.8 kmh WSW 2.5 mph4.0 kmh 29.32 in992.9 mb 0.00 in0.0 mm 0.00 in0.0 mm 0.00 in0.0 mm
11:20 AM 61.5°F16.4°C 34.3°F1.3°C 36% 0.9 mph NNW1.4 kmh NNW 2.0 mph3.2 kmh 29.32 in992.9 mb 0.00 in0.0 mm 0.00 in0.0 mm 0.00 in0.0 mm
11:14 AM 61.7°F16.5°C 34.5°F1.4°C 36% 2.7 mph WNW4.3 kmh WNW 2.7 mph4.3 kmh 29.32 in992.9 mb 0.00 in0.0 mm 0.00 in0.0 mm 0.00 in0.0 mm
11:07 AM 62.2°F16.8°C 35.0°F1.7°C 36% 2.2 mph 3.5 kmh 2.2 mph3.5 kmh 29.32 in992.9 mb 0.00 in0.0 mm 0.00 in0.0 mm 0.00 in0.0 mm
11:00 AM 62.6°F17.0°C 35.3°F1.8°C 36% Calm Calm 1.1 mph1.8 kmh 29.32 in992.9 mb 0.00 in0.0 mm 0.00 in0.0 mm 0.00 in0.0 mm
10:53 AM 63.0°F17.2°C 35.6°F2.0°C 36% 2.5 mph 4.0 kmh 2.5 mph4.0 kmh 29.32 in992.9 mb 0.00 in0.0 mm 0.00 in0.0 mm 0.00 in0.0 mm
10:46 AM 62.6°F17.0°C 35.3°F1.8°C 36% 1.6 mph WNW2.6 kmh WNW 2.0 mph3.2 kmh 29.32 in992.9 mb 0.00 in0.0 mm 0.00 in0.0 mm 0.00 in0.0 mm
10:39 AM 62.8°F17.1°C 35.5°F1.9°C 36% 1.1 mph WSW1.8 kmh WSW 1.1 mph1.8 kmh 29.32 in992.9 mb 0.00 in0.0 mm 0.00 in0.0 mm 0.00 in0.0 mm
10:32 AM 62.6°F17.0°C 35.3°F1.8°C 36% 1.1 mph WSW1.8 kmh WSW 1.3 mph2.1 kmh 29.32 in992.9 mb 0.00 in0.0 mm 0.00 in0.0 mm 0.00 in0.0 mm
10:25 AM 62.4°F16.9°C 35.1°F1.7°C 36% Calm Calm -- 29.32 in992.9 mb 0.00 in0.0 mm 0.00 in0.0 mm 0.00 in0.0 mm
10:18 AM 62.4°F16.9°C 35.1°F1.7°C 36% Calm Calm -- 29.32 in992.9 mb 0.00 in0.0 mm 0.00 in0.0 mm 0.00 in0.0 mm
10:11 AM 62.6°F17.0°C 34.6°F1.4°C 35% 2.7 mph SSW4.3 kmh SSW 2.7 mph4.3 kmh 29.32 in992.9 mb 0.00 in0.0 mm 0.00 in0.0 mm 0.00 in0.0 mm
10:04 AM 63.5°F17.5°C 35.4°F1.9°C 35% 1.3 mph SE2.1 kmh SE 2.5 mph4.0 kmh 29.35 in993.9 mb 0.00 in0.0 mm 0.00 in0.0 mm 0.00 in0.0 mm
09:57 AM 63.5°F17.5°C 36.1°F2.3°C 36% 1.6 mph NNW2.6 kmh NNW 1.6 mph2.6 kmh 29.35 in993.9 mb 0.00 in0.0 mm 0.00 in0.0 mm 0.00 in0.0 mm
09:50 AM 63.5°F17.5°C 36.1°F2.3°C 36% 1.1 mph WSW1.8 kmh WSW 3.1 mph5.0 kmh 29.35 in993.9 mb 0.00 in0.0 mm 0.00 in0.0 mm 0.00 in0.0 mm
09:43 AM 63.5°F17.5°C 36.8°F2.7°C 37% 1.1 mph NNE1.8 kmh NNE 1.1 mph1.8 kmh 29.35 in993.9 mb 0.00 in0.0 mm 0.00 in0.0 mm 0.00 in0.0 mm
09:36 AM 63.3°F17.4°C 37.3°F2.9°C 38% 1.6 mph NNE2.6 kmh NNE 1.6 mph2.6 kmh 29.35 in993.9 mb 0.00 in0.0 mm 0.00 in0.0 mm 0.00 in0.0 mm
09:29 AM 63.1°F17.3°C 37.8°F3.2°C 39% 2.9 mph WSW4.7 kmh WSW 2.9 mph4.7 kmh 29.35 in993.9 mb 0.00 in0.0 mm 0.00 in0.0 mm 0.00 in0.0 mm
09:22 AM 63.0°F17.2°C 38.3°F3.5°C 40% 2.0 mph E3.2 kmh E 2.0 mph3.2 kmh 29.35 in993.9 mb 0.00 in0.0 mm 0.00 in0.0 mm 0.00 in0.0 mm
09:15 AM 62.1°F16.7°C 38.7°F3.7°C 42% 2.7 mph W4.3 kmh W 2.7 mph4.3 kmh 29.35 in993.9 mb 0.00 in0.0 mm 0.00 in0.0 mm 0.00 in0.0 mm
09:08 AM 61.3°F16.3°C 37.5°F3.1°C 41% 1.1 mph NNE1.8 kmh NNE 1.3 mph2.1 kmh 29.35 in993.9 mb 0.00 in0.0 mm 0.00 in0.0 mm 0.00 in0.0 mm
09:00 AM 61.0°F16.1°C 37.1°F2.8°C 41% 1.3 mph W2.1 kmh W 2.0 mph3.2 kmh 29.35 in993.9 mb 0.00 in0.0 mm 0.00 in0.0 mm 0.00 in0.0 mm
08:54 AM 61.0°F16.1°C 37.1°F2.8°C 41% 2.9 mph NNE4.7 kmh NNE 2.9 mph4.7 kmh 29.35 in993.9 mb 0.00 in0.0 mm 0.00 in0.0 mm 0.00 in0.0 mm
08:47 AM 61.3°F16.3°C 36.8°F2.7°C 40% 2.7 mph WNW4.3 kmh WNW 2.7 mph4.3 kmh 29.38 in994.9 mb 0.00 in0.0 mm 0.00 in0.0 mm 0.00 in0.0 mm
08:40 AM 61.3°F16.3°C 37.5°F3.1°C 41% 1.6 mph NNE2.6 kmh NNE 1.6 mph2.6 kmh 29.38 in994.9 mb 0.00 in0.0 mm 0.00 in0.0 mm 0.00 in0.0 mm
08:33 AM 61.3°F16.3°C 38.1°F3.4°C 42% 2.5 mph 4.0 kmh 2.7 mph4.3 kmh 29.38 in994.9 mb 0.00 in0.0 mm 0.00 in0.0 mm 0.00 in0.0 mm
08:25 AM 61.0°F16.1°C 37.8°F3.2°C 42% 2.0 mph NE3.2 kmh NE 2.9 mph4.7 kmh 29.38 in994.9 mb 0.00 in0.0 mm 0.00 in0.0 mm 0.00 in0.0 mm
08:18 AM 61.0°F16.1°C 37.8°F3.2°C 42% 1.3 mph NNE2.1 kmh NNE 1.3 mph2.1 kmh 29.38 in994.9 mb 0.00 in0.0 mm 0.00 in0.0 mm 0.00 in0.0 mm
08:12 AM 61.0°F16.1°C 38.4°F3.6°C 43% 1.1 mph NNE1.8 kmh NNE 1.3 mph2.1 kmh 29.38 in994.9 mb 0.00 in0.0 mm 0.00 in0.0 mm 0.00 in0.0 mm
08:05 AM 61.0°F16.1°C 38.9°F3.8°C 44% 1.6 mph NNW2.6 kmh NNW 1.6 mph2.6 kmh 29.38 in994.9 mb 0.00 in0.0 mm 0.00 in0.0 mm 0.00 in0.0 mm
07:58 AM 61.0°F16.1°C 38.9°F3.8°C 44% Calm Calm 1.1 mph1.8 kmh 29.38 in994.9 mb 0.00 in0.0 mm 0.00 in0.0 mm 0.00 in0.0 mm
07:51 AM 60.4°F15.8°C 39.0°F3.9°C 45% 1.6 mph W2.6 kmh W 3.4 mph5.5 kmh 29.38 in994.9 mb 0.00 in0.0 mm 0.00 in0.0 mm 0.00 in0.0 mm
07:44 AM 60.4°F15.8°C 39.0°F3.9°C 45% 1.1 mph WNW1.8 kmh WNW 2.7 mph4.3 kmh 29.38 in994.9 mb 0.00 in0.0 mm 0.00 in0.0 mm 0.00 in0.0 mm
07:37 AM 60.8°F16.0°C 39.4°F4.1°C 45% 1.1 mph NNW1.8 kmh NNW 1.1 mph1.8 kmh 29.38 in994.9 mb 0.00 in0.0 mm 0.00 in0.0 mm 0.00 in0.0 mm
07:30 AM 61.2°F16.2°C 41.3°F5.2°C 48% 2.2 mph NNW3.5 kmh NNW 2.5 mph4.0 kmh 29.38 in994.9 mb 0.00 in0.0 mm 0.00 in0.0 mm 0.00 in0.0 mm
07:22 AM 59.5°F15.3°C 39.9°F4.4°C 48% 0.9 mph SSW1.4 kmh SSW 1.1 mph1.8 kmh 29.38 in994.9 mb 0.00 in0.0 mm 0.00 in0.0 mm 0.00 in0.0 mm
07:16 AM 58.8°F14.9°C 39.2°F4.0°C 48% Calm Calm 0.9 mph1.4 kmh 29.38 in994.9 mb 0.00 in0.0 mm 0.00 in0.0 mm 0.00 in0.0 mm
07:09 AM 58.8°F14.9°C 38.7°F3.7°C 47% 1.3 mph NNE2.1 kmh NNE 1.6 mph2.6 kmh 29.38 in994.9 mb 0.00 in0.0 mm 0.00 in0.0 mm 0.00 in0.0 mm
07:02 AM 58.8°F14.9°C 38.7°F3.7°C 47% Calm Calm 1.3 mph2.1 kmh 29.38 in994.9 mb 0.00 in0.0 mm 0.00 in0.0 mm 0.00 in0.0 mm
06:55 AM 59.2°F15.1°C 39.0°F3.9°C 47% 1.1 mph WNW1.8 kmh WNW 1.3 mph2.1 kmh 29.38 in994.9 mb 0.00 in0.0 mm 0.00 in0.0 mm 0.00 in0.0 mm
06:48 AM 60.1°F15.6°C 41.4°F5.2°C 50% Calm Calm 1.3 mph2.1 kmh 29.38 in994.9 mb 0.00 in0.0 mm 0.00 in0.0 mm 0.00 in0.0 mm
06:41 AM 61.2°F16.2°C 47.6°F8.7°C 61% 2.0 mph NNW3.2 kmh NNW 2.7 mph4.3 kmh 29.38 in994.9 mb 0.00 in0.0 mm 0.00 in0.0 mm 0.00 in0.0 mm
06:34 AM 59.9°F15.5°C 48.1°F8.9°C 65% 2.0 mph 3.2 kmh 2.0 mph3.2 kmh 29.41 in995.9 mb 0.00 in0.0 mm 0.00 in0.0 mm 0.00 in0.0 mm
06:27 AM 58.5°F14.7°C 46.3°F7.9°C 64% 1.1 mph ENE1.8 kmh ENE 1.1 mph1.8 kmh 29.41 in995.9 mb 0.00 in0.0 mm 0.00 in0.0 mm 0.00 in0.0 mm
06:20 AM 58.5°F14.7°C 49.1°F9.5°C 71% Calm Calm -- 29.41 in995.9 mb 0.00 in0.0 mm 0.00 in0.0 mm 0.00 in0.0 mm
06:13 AM 58.1°F14.5°C 49.9°F9.9°C 74% Calm Calm 0.9 mph1.4 kmh 29.41 in995.9 mb 0.00 in0.0 mm 0.00 in0.0 mm 0.00 in0.0 mm
06:06 AM 55.9°F13.3°C 46.7°F8.2°C 71% 1.3 mph WSW2.1 kmh WSW 1.3 mph2.1 kmh 29.41 in995.9 mb 0.00 in0.0 mm 0.00 in0.0 mm 0.00 in0.0 mm
05:59 AM 54.9°F12.7°C 44.9°F7.2°C 69% Calm Calm -- 29.41 in995.9 mb 0.00 in0.0 mm 0.00 in0.0 mm 0.00 in0.0 mm
05:52 AM 54.5°F12.5°C 44.2°F6.8°C 68% Calm Calm -- 29.41 in995.9 mb 0.00 in0.0 mm 0.00 in0.0 mm 0.00 in0.0 mm
05:45 AM 54.5°F12.5°C 44.9°F7.2°C 70% Calm Calm 0.9 mph1.4 kmh 29.41 in995.9 mb 0.00 in0.0 mm 0.00 in0.0 mm 0.00 in0.0 mm
05:38 AM 54.5°F12.5°C 45.7°F7.6°C 72% Calm Calm -- 29.41 in995.9 mb 0.00 in0.0 mm 0.00 in0.0 mm 0.00 in0.0 mm
05:31 AM 54.3°F12.4°C 45.9°F7.7°C 73% Calm Calm -- 29.41 in995.9 mb 0.00 in0.0 mm 0.00 in0.0 mm 0.00 in0.0 mm
05:24 AM 54.0°F12.2°C 45.5°F7.5°C 73% Calm Calm -- 29.41 in995.9 mb 0.00 in0.0 mm 0.00 in0.0 mm 0.00 in0.0 mm
05:17 AM 53.4°F11.9°C 45.0°F7.2°C 73% Calm Calm -- 29.41 in995.9 mb 0.00 in0.0 mm 0.00 in0.0 mm 0.00 in0.0 mm
05:10 AM 52.3°F11.3°C 43.6°F6.4°C 72% Calm Calm -- 29.41 in995.9 mb 0.00 in0.0 mm 0.00 in0.0 mm 0.00 in0.0 mm
05:03 AM 51.6°F10.9°C 42.5°F5.8°C 71% Calm Calm -- 29.41 in995.9 mb 0.00 in0.0 mm 0.00 in0.0 mm 0.00 in0.0 mm
04:56 AM 51.1°F10.6°C 41.7°F5.4°C 70% Calm Calm -- 29.41 in995.9 mb 0.00 in0.0 mm 0.00 in0.0 mm 0.00 in0.0 mm
04:49 AM 50.5°F10.3°C 40.4°F4.7°C 68% Calm Calm -- 29.44 in997.0 mb 0.00 in0.0 mm 0.00 in0.0 mm 0.00 in0.0 mm
04:42 AM 50.2°F10.1°C 39.7°F4.3°C 67% Calm Calm -- 29.44 in997.0 mb 0.00 in0.0 mm 0.00 in0.0 mm 0.00 in0.0 mm
04:35 AM 50.2°F10.1°C 39.7°F4.3°C 67% Calm Calm -- 29.41 in995.9 mb 0.00 in0.0 mm 0.00 in0.0 mm 0.00 in0.0 mm
04:28 AM 50.0°F10.0°C 39.5°F4.2°C 67% 1.6 mph WNW2.6 kmh WNW 1.6 mph2.6 kmh 29.41 in995.9 mb 0.00 in0.0 mm 0.00 in0.0 mm 0.00 in0.0 mm
04:21 AM 49.8°F9.9°C 38.9°F3.8°C 66% Calm Calm -- 29.44 in997.0 mb 0.00 in0.0 mm 0.00 in0.0 mm 0.00 in0.0 mm
04:14 AM 49.5°F9.7°C 38.2°F3.4°C 65% Calm Calm -- 29.44 in997.0 mb 0.00 in0.0 mm 0.00 in0.0 mm 0.00 in0.0 mm
04:07 AM 49.3°F9.6°C 37.6°F3.1°C 64% Calm Calm -- 29.44 in997.0 mb 0.00 in0.0 mm 0.00 in0.0 mm 0.00 in0.0 mm
03:59 AM 49.3°F9.6°C 37.2°F2.9°C 63% 0.9 mph WNW1.4 kmh WNW 0.9 mph1.4 kmh 29.44 in997.0 mb 0.00 in0.0 mm 0.00 in0.0 mm 0.00 in0.0 mm
03:53 AM 49.5°F9.7°C 37.0°F2.8°C 62% Calm Calm -- 29.44 in997.0 mb 0.00 in0.0 mm 0.00 in0.0 mm 0.00 in0.0 mm
03:46 AM 49.5°F9.7°C 37.0°F2.8°C 62% Calm Calm -- 29.44 in997.0 mb 0.00 in0.0 mm 0.00 in0.0 mm 0.00 in0.0 mm
03:39 AM 49.6°F9.8°C 37.2°F2.9°C 62% Calm Calm -- 29.44 in997.0 mb 0.00 in0.0 mm 0.00 in0.0 mm 0.00 in0.0 mm
03:32 AM 49.6°F9.8°C 36.8°F2.7°C 61% Calm Calm -- 29.44 in997.0 mb 0.00 in0.0 mm 0.00 in0.0 mm 0.00 in0.0 mm
03:25 AM 49.6°F9.8°C 36.3°F2.4°C 60% Calm Calm -- 29.44 in997.0 mb 0.00 in0.0 mm 0.00 in0.0 mm 0.00 in0.0 mm
03:18 AM 49.6°F9.8°C 35.9°F2.2°C 59% Calm Calm -- 29.44 in997.0 mb 0.00 in0.0 mm 0.00 in0.0 mm 0.00 in0.0 mm
03:11 AM 49.6°F9.8°C 35.9°F2.2°C 59% Calm Calm -- 29.44 in997.0 mb 0.00 in0.0 mm 0.00 in0.0 mm 0.00 in0.0 mm
03:04 AM 49.8°F9.9°C 35.7°F2.1°C 58% Calm Calm -- 29.44 in997.0 mb 0.00 in0.0 mm 0.00 in0.0 mm 0.00 in0.0 mm
02:57 AM 50.0°F10.0°C 34.9°F1.6°C 56% Calm Calm -- 29.44 in997.0 mb 0.00 in0.0 mm 0.00 in0.0 mm 0.00 in0.0 mm
02:50 AM 50.2°F10.1°C 35.6°F2.0°C 57% Calm Calm -- 29.44 in997.0 mb 0.00 in0.0 mm 0.00 in0.0 mm 0.00 in0.0 mm
02:43 AM 50.2°F10.1°C 35.1°F1.7°C 56% Calm Calm -- 29.44 in997.0 mb 0.00 in0.0 mm 0.00 in0.0 mm 0.00 in0.0 mm
02:36 AM 50.4°F10.2°C 34.8°F1.6°C 55% Calm Calm -- 29.44 in997.0 mb 0.00 in0.0 mm 0.00 in0.0 mm 0.00 in0.0 mm
02:29 AM 50.5°F10.3°C 35.0°F1.7°C 55% Calm Calm -- 29.44 in997.0 mb 0.00 in0.0 mm 0.00 in0.0 mm 0.00 in0.0 mm
02:22 AM 50.5°F10.3°C 35.0°F1.7°C 55% Calm Calm -- 29.44 in997.0 mb 0.00 in0.0 mm 0.00 in0.0 mm 0.00 in0.0 mm
02:15 AM 50.9°F10.5°C 35.3°F1.8°C 55% Calm Calm -- 29.44 in997.0 mb 0.00 in0.0 mm 0.00 in0.0 mm 0.00 in0.0 mm
02:08 AM 50.9°F10.5°C 34.9°F1.6°C 54% Calm Calm -- 29.44 in997.0 mb 0.00 in0.0 mm 0.00 in0.0 mm 0.00 in0.0 mm
02:00 AM 50.9°F10.5°C 34.4°F1.3°C 53% Calm Calm -- 29.44 in997.0 mb 0.00 in0.0 mm 0.00 in0.0 mm 0.00 in0.0 mm
01:53 AM 51.1°F10.6°C 34.1°F1.2°C 52% Calm Calm -- 29.44 in997.0 mb 0.00 in0.0 mm 0.00 in0.0 mm 0.00 in0.0 mm
01:46 AM 51.1°F10.6°C 34.1°F1.2°C 52% Calm Calm -- 29.47 in998.0 mb 0.00 in0.0 mm 0.00 in0.0 mm 0.00 in0.0 mm
01:40 AM 51.4°F10.8°C 34.4°F1.3°C 52% Calm Calm -- 29.47 in998.0 mb 0.00 in0.0 mm 0.00 in0.0 mm 0.00 in0.0 mm
01:33 AM 51.6°F10.9°C 34.1°F1.2°C 51% Calm Calm -- 29.47 in998.0 mb 0.00 in0.0 mm 0.00 in0.0 mm 0.00 in0.0 mm
01:26 AM 52.2°F11.2°C 34.1°F1.2°C 50% Calm Calm -- 29.47 in998.0 mb 0.00 in0.0 mm 0.00 in0.0 mm 0.00 in0.0 mm
01:19 AM 52.3°F11.3°C 34.8°F1.6°C 51% Calm Calm -- 29.47 in998.0 mb 0.00 in0.0 mm 0.00 in0.0 mm 0.00 in0.0 mm
01:12 AM 52.7°F11.5°C 34.6°F1.4°C 50% Calm Calm -- 29.47 in998.0 mb 0.00 in0.0 mm 0.00 in0.0 mm 0.00 in0.0 mm
01:05 AM 52.9°F11.6°C 34.8°F1.6°C 50% Calm Calm -- 29.47 in998.0 mb 0.00 in0.0 mm 0.00 in0.0 mm 0.00 in0.0 mm
12:58 AM 52.9°F11.6°C 35.3°F1.8°C 51% Calm Calm -- 29.47 in998.0 mb 0.00 in0.0 mm 0.00 in0.0 mm 0.00 in0.0 mm
12:51 AM 53.1°F11.7°C 35.4°F1.9°C 51% Calm Calm -- 29.47 in998.0 mb 0.00 in0.0 mm 0.00 in0.0 mm 0.00 in0.0 mm
12:44 AM 53.2°F11.8°C 35.6°F2.0°C 51% Calm Calm -- 29.47 in998.0 mb 0.00 in0.0 mm 0.00 in0.0 mm 0.00 in0.0 mm
12:37 AM 53.4°F11.9°C 35.3°F1.8°C 50% Calm Calm -- 29.47 in998.0 mb 0.00 in0.0 mm 0.00 in0.0 mm 0.00 in0.0 mm
12:30 AM 53.4°F11.9°C 35.3°F1.8°C 50% Calm Calm -- 29.50 in999.0 mb 0.00 in0.0 mm 0.00 in0.0 mm 0.00 in0.0 mm
12:23 AM 53.4°F11.9°C 34.8°F1.6°C 49% Calm Calm -- 29.50 in999.0 mb 0.00 in0.0 mm 0.00 in0.0 mm 0.00 in0.0 mm
12:16 AM 53.6°F12.0°C 34.4°F1.3°C 48% Calm Calm -- 29.50 in999.0 mb 0.00 in0.0 mm 0.00 in0.0 mm 0.00 in0.0 mm
12:09 AM 53.6°F12.0°C 34.4°F1.3°C 48% Calm Calm -- 29.50 in999.0 mb 0.00 in0.0 mm 0.00 in0.0 mm 0.00 in0.0 mm
12:02 AM 54.0°F12.2°C 34.2°F1.2°C 47% Calm Calm -- 29.50 in999.0 mb 0.00 in0.0 mm 0.00 in0.0 mm 0.00 in0.0 mm